createdAt,value
2023-04-26T00:01:47.319Z,3.78
2023-04-26T00:04:14.208Z,3.78
2023-04-26T00:06:41.619Z,3.88
2023-04-26T00:09:08.369Z,5.15
2023-04-26T00:11:34.770Z,4.68
2023-04-26T00:14:01.231Z,4.60
2023-04-26T00:16:27.694Z,3.75
2023-04-26T00:18:54.784Z,4.68
2023-04-26T00:21:21.556Z,4.43
2023-04-26T00:23:47.960Z,3.25
2023-04-26T00:26:14.387Z,4.90
2023-04-26T00:28:40.935Z,4.53
2023-04-26T00:31:07.359Z,4.32
2023-04-26T00:33:33.826Z,4.30
2023-04-26T00:36:00.445Z,4.63
2023-04-26T00:38:26.832Z,4.22
2023-04-26T00:40:53.195Z,4.95
2023-04-26T00:43:19.648Z,4.45
2023-04-26T00:45:46.166Z,4.97
2023-04-26T00:48:13.141Z,4.90
2023-04-26T00:50:39.716Z,4.90
2023-04-26T00:53:08.076Z,4.28
2023-04-26T00:55:35.294Z,4.30
2023-04-26T00:58:01.903Z,4.60
2023-04-26T01:00:28.312Z,4.70
2023-04-26T01:02:54.921Z,5.55
2023-04-26T01:05:21.676Z,5.45
2023-04-26T01:07:48.108Z,5.05
2023-04-26T01:10:14.559Z,5.43
2023-04-26T01:12:41.429Z,5.20
2023-04-26T01:15:08.646Z,6.03
2023-04-26T01:17:35.036Z,4.93
2023-04-26T01:20:01.514Z,5.25
2023-04-26T01:22:28.547Z,6.63
2023-04-26T01:24:56.470Z,5.65
2023-04-26T01:27:23.064Z,5.68
2023-04-26T01:29:49.544Z,5.28
2023-04-26T01:32:16.199Z,5.60
2023-04-26T01:34:42.620Z,6.50
2023-04-26T01:37:09.057Z,5.90
2023-04-26T01:39:36.647Z,5.50
2023-04-26T01:42:04.677Z,5.75
2023-04-26T01:44:31.389Z,5.75
2023-04-26T01:46:57.782Z,5.47
2023-04-26T01:49:24.216Z,5.85
2023-04-26T01:51:50.604Z,5.55
2023-04-26T01:54:16.993Z,5.88
2023-04-26T01:56:43.383Z,6.30
2023-04-26T01:59:09.936Z,5.18
2023-04-26T02:01:36.419Z,5.45
2023-04-26T02:04:03.166Z,5.72
2023-04-26T02:06:29.563Z,6.53
2023-04-26T02:08:56.933Z,6.28
2023-04-26T02:11:24.478Z,5.93
2023-04-26T02:13:51.030Z,4.53
2023-04-26T02:16:17.487Z,4.93
2023-04-26T02:18:44.531Z,5.53
2023-04-26T02:21:11.862Z,5.65
2023-04-26T02:23:38.369Z,5.63
2023-04-26T02:26:05.112Z,5.45
2023-04-26T02:28:31.554Z,5.40
2023-04-26T02:30:58.436Z,5.18
2023-04-26T02:33:24.945Z,5.90
2023-04-26T02:35:51.421Z,5.97
2023-04-26T02:38:17.815Z,6.05
2023-04-26T02:40:44.240Z,6.20
2023-04-26T02:43:10.801Z,5.47
2023-04-26T02:45:43.790Z,5.95
2023-04-26T02:48:10.174Z,6.22
2023-04-26T02:50:36.787Z,5.00
2023-04-26T02:53:03.635Z,6.28
2023-04-26T02:55:30.040Z,6.25
2023-04-26T02:57:56.540Z,5.75
2023-04-26T03:00:23.567Z,6.57
2023-04-26T03:02:50.215Z,6.35
2023-04-26T03:05:16.710Z,6.60
2023-04-26T03:07:43.140Z,6.78
2023-04-26T03:10:10.070Z,6.55
2023-04-26T03:12:36.659Z,6.40
2023-04-26T03:15:03.996Z,6.35
2023-04-26T03:17:30.529Z,7.43
2023-04-26T03:19:57.134Z,6.53
2023-04-26T03:22:23.565Z,5.70
2023-04-26T03:24:50.003Z,6.55
2023-04-26T03:27:16.656Z,7.18
2023-04-26T03:29:44.256Z,6.78
2023-04-26T03:32:10.942Z,7.00
2023-04-26T03:34:37.503Z,7.63
2023-04-26T03:37:03.962Z,6.70
2023-04-26T03:39:30.378Z,7.40
2023-04-26T03:41:56.766Z,7.32
2023-04-26T03:44:23.196Z,6.65
2023-04-26T03:46:49.635Z,6.70
2023-04-26T03:49:16.154Z,7.30
2023-04-26T03:51:42.715Z,6.72
2023-04-26T03:54:09.137Z,7.70
2023-04-26T03:56:39.850Z,6.88
2023-04-26T03:59:07.132Z,7.63
2023-04-26T04:01:35.574Z,6.60
2023-04-26T04:04:03.771Z,6.93
2023-04-26T04:06:41.701Z,6.82
2023-04-26T04:09:19.779Z,8.23
2023-04-26T04:11:47.664Z,8.40
2023-04-26T04:14:15.557Z,8.05
2023-04-26T04:16:42.102Z,7.95
2023-04-26T04:19:08.880Z,8.40
2023-04-26T04:21:35.595Z,8.13
2023-04-26T04:24:02.192Z,6.45
2023-04-26T04:26:28.663Z,9.18
2023-04-26T04:28:55.384Z,8.25
2023-04-26T04:31:22.887Z,8.65
2023-04-26T04:33:49.378Z,7.15
2023-04-26T04:36:16.843Z,8.35
2023-04-26T04:38:43.577Z,7.88
2023-04-26T04:41:10.250Z,6.70
2023-04-26T04:43:37.154Z,7.78
2023-04-26T04:46:03.604Z,7.25
2023-04-26T04:48:30.213Z,7.00
2023-04-26T04:50:56.606Z,8.30
2023-04-26T04:53:22.994Z,8.18
2023-04-26T04:55:49.369Z,7.25
2023-04-26T04:58:15.771Z,7.45
2023-04-26T05:00:42.204Z,7.25
2023-04-26T05:03:09.822Z,7.20
2023-04-26T05:05:36.571Z,6.72
2023-04-26T05:08:03.044Z,6.80
2023-04-26T05:10:29.428Z,8.50
2023-04-26T05:12:55.818Z,7.90
2023-04-26T05:15:22.406Z,7.22
2023-04-26T05:17:49.261Z,7.80
2023-04-26T05:20:15.890Z,8.43
2023-04-26T05:22:42.468Z,6.97
2023-04-26T05:25:10.477Z,7.03
2023-04-26T05:27:37.715Z,7.40
2023-04-26T05:30:08.128Z,7.18
2023-04-26T05:32:34.541Z,7.07
2023-04-26T05:35:01.450Z,7.63
2023-04-26T05:37:27.893Z,8.95
2023-04-26T05:39:54.289Z,7.78
2023-04-26T05:42:20.755Z,10.00
2023-04-26T05:44:47.523Z,10.02
2023-04-26T05:47:14.341Z,9.82
2023-04-26T05:49:40.885Z,9.40
2023-04-26T05:52:07.277Z,9.80
2023-04-26T05:54:33.696Z,10.30
2023-04-26T05:57:00.196Z,9.05
2023-04-26T05:59:28.152Z,9.93
2023-04-26T06:01:54.557Z,11.20
2023-04-26T06:04:21.090Z,10.38
2023-04-26T06:06:47.568Z,9.65
2023-04-26T06:09:13.971Z,10.02
2023-04-26T06:11:40.421Z,9.23
2023-04-26T06:14:08.933Z,9.45
2023-04-26T06:16:43.639Z,9.20
2023-04-26T06:19:10.389Z,9.38
2023-04-26T06:21:36.899Z,10.70
2023-04-26T06:24:03.897Z,11.10
2023-04-26T06:26:31.489Z,9.45
2023-04-26T06:28:57.944Z,9.20
2023-04-26T06:31:24.448Z,10.02
2023-04-26T06:33:51.102Z,9.10
2023-04-26T06:36:17.843Z,8.55
2023-04-26T06:38:44.213Z,9.38
2023-04-26T06:41:10.682Z,8.93
2023-04-26T06:43:37.064Z,9.02
2023-04-26T06:46:03.889Z,8.95
2023-04-26T06:48:30.566Z,9.15
2023-04-26T06:50:57.120Z,7.07
2023-04-26T06:53:23.524Z,8.18
2023-04-26T06:55:50.021Z,7.78
2023-04-26T06:58:16.410Z,8.38
2023-04-26T07:00:42.788Z,7.07
2023-04-26T07:03:09.350Z,8.50
2023-04-26T07:05:35.833Z,6.72
2023-04-26T07:08:02.224Z,5.97
2023-04-26T07:10:28.611Z,5.88
2023-04-26T07:12:55.743Z,6.93
2023-04-26T07:15:22.513Z,6.40
2023-04-26T07:17:49.128Z,7.25
2023-04-26T07:20:19.732Z,6.38
2023-04-26T07:22:46.832Z,6.22
2023-04-26T07:25:13.424Z,7.82
2023-04-26T07:27:40.025Z,6.43
2023-04-26T07:30:07.038Z,6.88
2023-04-26T07:32:33.699Z,6.05
2023-04-26T07:35:01.607Z,7.10
2023-04-26T07:37:28.071Z,5.63
2023-04-26T07:39:54.453Z,5.18
2023-04-26T07:42:21.011Z,5.40
2023-04-26T07:44:50.534Z,6.18
2023-04-26T07:47:17.034Z,4.97
2023-04-26T07:49:44.032Z,6.15
2023-04-26T07:52:11.699Z,5.82
2023-04-26T07:54:39.930Z,5.55
2023-04-26T07:57:06.370Z,6.32
2023-04-26T07:59:32.768Z,5.60
2023-04-26T08:01:59.188Z,5.40
2023-04-26T08:04:36.630Z,5.88
2023-04-26T08:07:03.226Z,6.10
2023-04-26T08:09:30.692Z,5.90
2023-04-26T08:11:57.464Z,5.75
2023-04-26T08:14:23.937Z,5.40
2023-04-26T08:16:51.540Z,6.45
2023-04-26T08:19:18.109Z,4.68
2023-04-26T08:21:44.518Z,5.43
2023-04-26T08:24:10.964Z,4.50
2023-04-26T08:26:37.390Z,6.15
2023-04-26T08:29:03.849Z,5.03
2023-04-26T08:31:30.466Z,4.55
2023-04-26T08:33:56.942Z,5.55
2023-04-26T08:36:23.377Z,6.38
2023-04-26T08:38:49.751Z,5.70
2023-04-26T08:41:22.688Z,4.60
2023-04-26T08:43:50.034Z,4.80
2023-04-26T08:46:19.860Z,4.50
2023-04-26T08:48:54.532Z,4.88
2023-04-26T08:51:22.362Z,5.30
2023-04-26T08:53:53.026Z,4.80
2023-04-26T08:56:23.125Z,5.72
2023-04-26T08:58:50.728Z,5.75
2023-04-26T09:01:18.877Z,5.25
2023-04-26T09:03:45.685Z,5.35
2023-04-26T09:06:12.542Z,4.97
2023-04-26T09:08:41.600Z,5.78
2023-04-26T09:11:08.057Z,6.30
2023-04-26T09:13:34.489Z,5.80
2023-04-26T09:16:02.732Z,6.07
2023-04-26T09:18:33.503Z,5.97
2023-04-26T09:21:05.848Z,5.40
2023-04-26T09:23:33.001Z,4.10
2023-04-26T09:26:22.278Z,4.72
2023-04-26T09:28:48.972Z,4.95
2023-04-26T09:31:37.402Z,5.05
2023-04-26T09:34:03.919Z,4.72
2023-04-26T09:36:31.755Z,6.63
2023-04-26T09:38:58.764Z,4.32
2023-04-26T09:41:42.328Z,4.40
2023-04-26T09:44:21.254Z,4.55
2023-04-26T09:47:06.578Z,4.47
2023-04-26T09:49:42.942Z,3.92
2023-04-26T09:52:09.352Z,4.28
2023-04-26T09:54:43.343Z,4.95
2023-04-26T09:57:12.037Z,4.47
2023-04-26T09:59:49.775Z,3.60
2023-04-26T10:02:16.295Z,2.45
2023-04-26T10:04:47.735Z,1.83
2023-04-26T10:07:16.091Z,2.10
2023-04-26T10:09:43.233Z,4.57
2023-04-26T10:12:14.757Z,2.67
2023-04-26T10:14:42.468Z,2.70
2023-04-26T10:17:09.007Z,2.00
2023-04-26T10:19:37.164Z,3.20
2023-04-26T10:22:16.224Z,1.80
2023-04-26T10:24:44.366Z,1.80
2023-04-26T10:27:10.822Z,2.30
2023-04-26T10:29:55.424Z,2.60
2023-04-26T10:32:22.437Z,2.13
2023-04-26T10:35:14.234Z,1.80
2023-04-26T10:37:59.582Z,1.50
2023-04-26T10:40:39.064Z,1.67
2023-04-26T10:43:18.231Z,2.45
2023-04-26T10:45:46.212Z,2.72
2023-04-26T10:48:22.566Z,2.25
2023-04-26T10:51:01.424Z,1.45
2023-04-26T10:53:28.267Z,1.50
2023-04-26T10:55:54.823Z,1.60
2023-04-26T10:58:27.999Z,1.60
2023-04-26T11:01:08.244Z,2.17
2023-04-26T11:03:35.095Z,2.47
2023-04-26T11:06:07.099Z,1.88
2023-04-26T11:08:34.252Z,2.13
2023-04-26T11:11:03.361Z,2.38
2023-04-26T11:13:31.428Z,2.45
2023-04-26T11:16:04.186Z,2.47
2023-04-26T11:18:31.554Z,2.55
2023-04-26T11:20:58.744Z,2.20
2023-04-26T11:23:27.293Z,1.80
2023-04-26T11:25:54.992Z,2.10
2023-04-26T11:28:23.210Z,2.00
2023-04-26T11:30:50.504Z,2.00
2023-04-26T11:33:19.510Z,2.08
2023-04-26T11:35:47.744Z,2.65
2023-04-26T11:38:15.370Z,2.10
2023-04-26T11:40:42.317Z,2.05
2023-04-26T11:43:09.916Z,1.77
2023-04-26T11:45:37.918Z,2.25
2023-04-26T11:48:07.795Z,1.73
2023-04-26T11:50:38.442Z,2.83
2023-04-26T11:53:07.528Z,1.55
2023-04-26T11:55:35.103Z,2.50
2023-04-26T11:58:13.296Z,3.10
2023-04-26T12:00:58.970Z,2.50
2023-04-26T12:03:35.264Z,2.47
2023-04-26T12:06:02.236Z,3.05
2023-04-26T12:08:28.706Z,2.40
2023-04-26T12:10:59.864Z,2.63
2023-04-26T12:13:26.706Z,2.80
2023-04-26T12:15:53.136Z,2.50
2023-04-26T12:18:19.636Z,2.78
2023-04-26T12:20:46.791Z,3.17
2023-04-26T12:23:16.368Z,2.58
2023-04-26T12:25:56.618Z,2.25
2023-04-26T12:28:23.941Z,2.67
2023-04-26T12:30:51.094Z,3.00
2023-04-26T12:33:22.520Z,3.38
2023-04-26T12:35:50.247Z,2.30
2023-04-26T12:38:17.178Z,2.15
2023-04-26T12:40:46.233Z,2.75
2023-04-26T12:43:12.913Z,2.53
2023-04-26T12:45:39.579Z,2.42
2023-04-26T12:48:06.582Z,2.10
2023-04-26T12:50:33.231Z,2.85
2023-04-26T12:52:59.725Z,3.83
2023-04-26T12:55:26.716Z,2.55
2023-04-26T12:57:53.252Z,1.58
2023-04-26T13:00:21.462Z,1.80
2023-04-26T13:02:47.965Z,1.40
2023-04-26T13:05:14.540Z,2.10
2023-04-26T13:07:43.127Z,2.22
2023-04-26T13:10:12.865Z,1.88
2023-04-26T13:12:40.189Z,1.80
2023-04-26T13:15:08.029Z,1.58
2023-04-26T13:17:35.776Z,2.03
2023-04-26T13:20:02.699Z,2.20
2023-04-26T13:22:30.896Z,2.95
2023-04-26T13:24:57.498Z,2.33
2023-04-26T13:27:23.912Z,1.30
2023-04-26T13:29:51.811Z,1.30
2023-04-26T13:32:18.577Z,1.70
2023-04-26T13:34:47.715Z,1.77
2023-04-26T13:37:14.531Z,2.13
2023-04-26T13:39:40.922Z,1.75
2023-04-26T13:42:07.429Z,1.80
2023-04-26T13:44:34.361Z,1.55
2023-04-26T13:47:00.936Z,1.42
2023-04-26T13:49:27.421Z,1.10
2023-04-26T13:51:54.287Z,1.45
2023-04-26T13:54:25.819Z,1.25
2023-04-26T13:56:53.587Z,1.77
2023-04-26T13:59:20.436Z,2.15
2023-04-26T14:01:47.081Z,1.10
2023-04-26T14:04:13.763Z,1.40
2023-04-26T14:06:40.683Z,2.17
2023-04-26T14:09:07.262Z,2.15
2023-04-26T14:11:33.895Z,2.20
2023-04-26T14:14:00.745Z,1.88
2023-04-26T14:16:27.461Z,1.80
2023-04-26T14:18:54.296Z,1.88
2023-04-26T14:21:21.274Z,1.63
2023-04-26T14:23:48.806Z,1.83
2023-04-26T14:26:16.622Z,2.35
2023-04-26T14:28:43.229Z,1.75
2023-04-26T14:31:09.991Z,1.75
2023-04-26T14:33:36.845Z,2.67
2023-04-26T14:36:03.900Z,2.28
2023-04-26T14:38:33.795Z,2.03
2023-04-26T14:41:00.597Z,2.10
2023-04-26T14:43:27.115Z,2.00
2023-04-26T14:45:53.669Z,1.55
2023-04-26T14:48:20.721Z,2.88
2023-04-26T14:50:48.119Z,1.30
2023-04-26T14:53:15.146Z,2.15
2023-04-26T14:55:42.076Z,1.70
2023-04-26T14:58:08.754Z,1.80
2023-04-26T15:00:36.371Z,1.67
2023-04-26T15:03:03.838Z,2.75
2023-04-26T15:05:30.482Z,2.13
2023-04-26T15:07:57.192Z,1.65
2023-04-26T15:10:23.763Z,1.98
2023-04-26T15:12:51.722Z,1.55
2023-04-26T15:15:18.686Z,1.75
2023-04-26T15:17:46.035Z,1.50
2023-04-26T15:20:13.298Z,1.48
2023-04-26T15:22:40.270Z,1.83
2023-04-26T15:25:07.436Z,1.55
2023-04-26T15:27:38.559Z,1.77
2023-04-26T15:30:17.879Z,1.60
2023-04-26T15:32:55.880Z,1.80
2023-04-26T15:35:31.292Z,2.00
2023-04-26T15:38:08.490Z,1.65
2023-04-26T15:40:39.829Z,2.38
2023-04-26T15:43:14.415Z,1.98
2023-04-26T15:45:56.687Z,2.60
2023-04-26T15:48:27.441Z,1.98
2023-04-26T15:53:23.974Z,1.88
2023-04-26T15:55:51.097Z,2.20
2023-04-26T15:58:17.731Z,2.00
2023-04-26T16:00:44.223Z,1.60
2023-04-26T16:03:10.828Z,2.22
2023-04-26T16:05:37.325Z,2.60
2023-04-26T16:08:03.923Z,3.25
2023-04-26T16:10:30.520Z,2.75
2023-04-26T16:12:57.284Z,2.42
2023-04-26T16:15:23.771Z,2.28
2023-04-26T16:17:50.261Z,2.20
2023-04-26T16:20:16.667Z,2.95
2023-04-26T16:22:44.668Z,2.00
2023-04-26T16:25:11.641Z,1.70
2023-04-26T16:27:38.098Z,2.35
2023-04-26T16:30:05.527Z,2.47
2023-04-26T16:32:32.243Z,2.25
2023-04-26T16:34:58.737Z,2.22
2023-04-26T16:37:25.182Z,2.80
2023-04-26T16:39:55.638Z,2.42
2023-04-26T16:42:22.185Z,2.70
2023-04-26T16:44:48.746Z,2.38
2023-04-26T16:47:15.293Z,3.65
2023-04-26T16:49:41.695Z,2.53
2023-04-26T16:52:08.496Z,2.67
2023-04-26T16:54:34.950Z,2.38
2023-04-26T16:57:03.570Z,2.13
2023-04-26T16:59:29.983Z,2.05
2023-04-26T17:01:56.464Z,2.08
2023-04-26T17:04:23.402Z,1.80
2023-04-26T17:06:50.082Z,2.00
2023-04-26T17:09:16.480Z,2.17
2023-04-26T17:11:44.311Z,2.67
2023-04-26T17:14:11.122Z,1.92
2023-04-26T17:16:37.751Z,3.20
2023-04-26T17:19:04.271Z,2.15
2023-04-26T17:21:30.676Z,3.45
2023-04-26T17:23:57.132Z,3.60
2023-04-26T17:26:23.609Z,4.47
2023-04-26T17:28:51.193Z,4.07
2023-04-26T17:31:17.776Z,4.95
2023-04-26T17:33:44.298Z,4.28
2023-04-26T17:36:10.724Z,4.78
2023-04-26T17:38:37.098Z,4.45
2023-04-26T17:41:03.599Z,4.57
2023-04-26T17:43:30.089Z,4.93
2023-04-26T17:45:56.621Z,5.20
2023-04-26T17:48:23.046Z,4.85
2023-04-26T17:50:50.829Z,5.07
2023-04-26T17:53:17.630Z,4.85
2023-04-26T17:55:44.940Z,6.15
2023-04-26T17:58:11.520Z,5.65
2023-04-26T18:00:37.986Z,6.43
2023-04-26T18:03:07.477Z,5.63
2023-04-26T18:05:33.978Z,5.22
2023-04-26T18:08:00.499Z,5.00
2023-04-26T18:10:26.963Z,5.50
2023-04-26T18:12:53.335Z,4.53
2023-04-26T18:15:19.885Z,4.75
2023-04-26T18:17:46.512Z,4.60
2023-04-26T18:20:13.347Z,5.00
2023-04-26T18:22:40.368Z,4.25
2023-04-26T18:25:07.353Z,4.85
2023-04-26T18:27:33.807Z,4.35
2023-04-26T18:30:00.670Z,4.25
2023-04-26T18:32:27.116Z,4.72
2023-04-26T18:34:53.528Z,5.05
2023-04-26T18:37:20.161Z,5.20
2023-04-26T18:39:46.674Z,5.30
2023-04-26T18:42:13.157Z,5.38
2023-04-26T18:44:39.582Z,6.43
2023-04-26T18:47:06.094Z,4.63
2023-04-26T18:49:32.602Z,4.40
2023-04-26T18:51:59.175Z,4.68
2023-04-26T18:54:26.272Z,3.72
2023-04-26T18:56:52.662Z,5.50
2023-04-26T18:59:19.131Z,4.75
2023-04-26T19:01:45.605Z,5.00
2023-04-26T19:04:12.348Z,5.00
2023-04-26T19:06:41.378Z,4.88
2023-04-26T19:09:11.443Z,4.53
2023-04-26T19:11:38.079Z,4.40
2023-04-26T19:14:04.500Z,5.80
2023-04-26T19:16:31.130Z,6.03
2023-04-26T19:18:58.142Z,5.68
2023-04-26T19:21:24.624Z,7.68
2023-04-26T19:23:51.166Z,7.60
2023-04-26T19:26:17.884Z,6.80
2023-04-26T19:28:44.454Z,6.47
2023-04-26T19:31:10.969Z,6.90
2023-04-26T19:33:38.136Z,6.70
2023-04-26T19:36:04.683Z,7.10
2023-04-26T19:38:31.246Z,6.18
2023-04-26T19:40:57.642Z,6.15
2023-04-26T19:43:24.228Z,6.63
2023-04-26T19:45:50.606Z,7.97
2023-04-26T19:48:17.103Z,8.43
2023-04-26T19:50:45.103Z,7.95
2023-04-26T19:53:13.403Z,7.18
2023-04-26T19:55:41.327Z,7.55
2023-04-26T19:58:08.183Z,7.55
2023-04-26T20:00:38.826Z,7.55
2023-04-26T20:03:05.849Z,7.05
2023-04-26T20:05:33.450Z,6.32
2023-04-26T20:07:59.993Z,7.93
2023-04-26T20:10:26.516Z,8.90
2023-04-26T20:12:53.305Z,8.10
2023-04-26T20:15:20.106Z,8.57
2023-04-26T20:17:46.928Z,9.65
2023-04-26T20:20:14.353Z,8.45
2023-04-26T20:22:41.593Z,9.48
2023-04-26T20:25:08.374Z,10.50
2023-04-26T20:27:35.584Z,9.20
2023-04-26T20:30:03.644Z,11.15
2023-04-26T20:32:30.355Z,10.77
2023-04-26T20:34:57.412Z,9.82
2023-04-26T20:37:25.159Z,12.35
2023-04-26T20:39:52.246Z,10.55
2023-04-26T20:42:18.908Z,9.27
2023-04-26T20:44:45.725Z,10.32
2023-04-26T20:47:12.180Z,10.48
2023-04-26T20:49:39.070Z,10.30
2023-04-26T20:52:05.811Z,9.98
2023-04-26T20:54:32.345Z,10.23
2023-04-26T20:56:59.220Z,9.38
2023-04-26T20:59:25.978Z,11.38
2023-04-26T21:01:53.790Z,9.77
2023-04-26T21:04:20.863Z,9.57
2023-04-26T21:06:47.897Z,10.98
2023-04-26T21:09:14.795Z,10.43
2023-04-26T21:11:42.568Z,10.13
2023-04-26T21:14:09.332Z,10.05
2023-04-26T21:16:36.023Z,8.60
2023-04-26T21:19:03.639Z,9.95
2023-04-26T21:21:30.246Z,9.40
2023-04-26T21:23:56.673Z,9.23
2023-04-26T21:26:23.410Z,7.68
2023-04-26T21:28:49.934Z,8.07
2023-04-26T21:31:16.840Z,9.07
2023-04-26T21:33:43.337Z,9.65
2023-04-26T21:36:10.610Z,8.55
2023-04-26T21:38:37.064Z,9.50
2023-04-26T21:41:04.193Z,8.90
2023-04-26T21:43:30.574Z,8.90
2023-04-26T21:45:58.358Z,8.07
2023-04-26T21:48:26.337Z,7.70
2023-04-26T21:50:53.343Z,10.40
2023-04-26T21:53:20.068Z,8.00
2023-04-26T21:55:52.757Z,8.43
2023-04-26T21:58:23.177Z,9.20
2023-04-26T22:00:50.545Z,8.48
2023-04-26T22:03:17.741Z,8.40
2023-04-26T22:05:45.160Z,8.43
2023-04-26T22:08:11.683Z,10.05
2023-04-26T22:10:38.746Z,10.70
2023-04-26T22:13:05.377Z,10.32
2023-04-26T22:15:31.912Z,8.50
2023-04-26T22:17:58.405Z,9.57
2023-04-26T22:20:24.796Z,10.38
2023-04-26T22:22:51.243Z,10.40
2023-04-26T22:25:17.713Z,10.70
2023-04-26T22:27:44.099Z,9.88
2023-04-26T22:30:24.050Z,10.85
2023-04-26T22:32:55.474Z,11.35
2023-04-26T22:35:23.468Z,11.55
2023-04-26T22:37:50.164Z,10.13
2023-04-26T22:40:16.918Z,11.18
2023-04-26T22:42:43.621Z,8.35
2023-04-26T22:45:11.125Z,10.18
2023-04-26T22:47:37.923Z,11.52
2023-04-26T22:50:05.574Z,12.27
2023-04-26T22:52:32.419Z,11.25
2023-04-26T22:54:59.962Z,11.82
2023-04-26T22:57:26.896Z,9.93
2023-04-26T22:59:53.287Z,10.43
2023-04-26T23:02:20.064Z,10.82
2023-04-26T23:04:46.717Z,9.98
2023-04-26T23:07:13.109Z,9.88
2023-04-26T23:09:39.667Z,10.80
2023-04-26T23:12:06.162Z,9.00
2023-04-26T23:14:32.586Z,10.73
2023-04-26T23:16:59.149Z,9.15
2023-04-26T23:19:26.346Z,9.27
2023-04-26T23:21:52.851Z,8.75
2023-04-26T23:24:19.325Z,9.88
2023-04-26T23:26:45.967Z,9.05
2023-04-26T23:29:13.110Z,8.52
2023-04-26T23:31:39.801Z,8.73
2023-04-26T23:34:06.207Z,9.15
2023-04-26T23:36:33.388Z,8.15
2023-04-26T23:38:59.879Z,9.65
2023-04-26T23:41:26.300Z,8.63
2023-04-26T23:43:52.736Z,9.57
2023-04-26T23:46:19.250Z,7.88
2023-04-26T23:48:45.759Z,7.13
2023-04-26T23:51:12.238Z,8.70
2023-04-26T23:53:39.636Z,9.10
2023-04-26T23:56:06.737Z,9.30
2023-04-26T23:58:33.278Z,7.88
